sensor_id;sensor_type;location;lat;lon;timestamp;P1;durP1;ratioP1;P2;durP2;ratioP2
18316;SDS011;9284;52.298;21.164;2023-08-12T00:00:04;7.07;;;4.35;;
18316;SDS011;9284;52.298;21.164;2023-08-12T00:02:42;10.90;;;4.72;;
18316;SDS011;9284;52.298;21.164;2023-08-12T00:05:11;12.82;;;4.32;;
18316;SDS011;9284;52.298;21.164;2023-08-12T00:07:40;6.80;;;4.50;;
18316;SDS011;9284;52.298;21.164;2023-08-12T00:10:09;7.55;;;4.35;;
18316;SDS011;9284;52.298;21.164;2023-08-12T00:12:39;8.27;;;4.80;;
18316;SDS011;9284;52.298;21.164;2023-08-12T00:15:08;6.05;;;3.92;;
18316;SDS011;9284;52.298;21.164;2023-08-12T00:17:37;6.28;;;4.35;;
18316;SDS011;9284;52.298;21.164;2023-08-12T00:20:10;6.30;;;4.40;;
18316;SDS011;9284;52.298;21.164;2023-08-12T00:22:39;6.63;;;4.18;;
18316;SDS011;9284;52.298;21.164;2023-08-12T00:25:10;7.43;;;4.35;;
18316;SDS011;9284;52.298;21.164;2023-08-12T00:27:38;7.93;;;4.82;;
18316;SDS011;9284;52.298;21.164;2023-08-12T00:30:06;10.52;;;5.45;;
18316;SDS011;9284;52.298;21.164;2023-08-12T00:32:35;9.45;;;4.80;;
18316;SDS011;9284;52.298;21.164;2023-08-12T00:35:05;9.20;;;5.07;;
18316;SDS011;9284;52.298;21.164;2023-08-12T00:37:35;9.48;;;4.80;;
18316;SDS011;9284;52.298;21.164;2023-08-12T00:40:03;8.35;;;4.95;;
18316;SDS011;9284;52.298;21.164;2023-08-12T00:42:33;10.85;;;5.25;;
18316;SDS011;9284;52.298;21.164;2023-08-12T00:45:01;6.63;;;4.43;;
18316;SDS011;9284;52.298;21.164;2023-08-12T00:47:30;6.53;;;4.78;;
18316;SDS011;9284;52.298;21.164;2023-08-12T00:49:58;9.90;;;4.50;;
18316;SDS011;9284;52.298;21.164;2023-08-12T00:52:27;6.28;;;4.50;;
18316;SDS011;9284;52.298;21.164;2023-08-12T00:54:57;6.35;;;4.85;;
18316;SDS011;9284;52.298;21.164;2023-08-12T00:57:25;6.45;;;4.70;;
18316;SDS011;9284;52.298;21.164;2023-08-12T00:59:54;9.82;;;4.38;;
18316;SDS011;9284;52.298;21.164;2023-08-12T01:02:23;9.23;;;5.10;;
18316;SDS011;9284;52.298;21.164;2023-08-12T01:04:52;8.95;;;5.07;;
18316;SDS011;9284;52.298;21.164;2023-08-12T01:07:20;7.40;;;4.28;;
18316;SDS011;9284;52.298;21.164;2023-08-12T01:09:50;9.55;;;4.97;;
18316;SDS011;9284;52.298;21.164;2023-08-12T01:12:26;9.93;;;5.05;;
18316;SDS011;9284;52.298;21.164;2023-08-12T01:15:01;15.48;;;5.80;;
18316;SDS011;9284;52.298;21.164;2023-08-12T01:17:35;8.02;;;4.43;;
18316;SDS011;9284;52.298;21.164;2023-08-12T01:20:09;9.80;;;4.53;;
18316;SDS011;9284;52.298;21.164;2023-08-12T01:22:40;8.95;;;5.40;;
18316;SDS011;9284;52.298;21.164;2023-08-12T01:25:13;8.48;;;4.93;;
18316;SDS011;9284;52.298;21.164;2023-08-12T01:27:41;9.88;;;5.20;;
18316;SDS011;9284;52.298;21.164;2023-08-12T01:30:10;7.30;;;4.78;;
18316;SDS011;9284;52.298;21.164;2023-08-12T01:32:41;10.35;;;5.35;;
18316;SDS011;9284;52.298;21.164;2023-08-12T01:35:14;9.02;;;5.35;;
18316;SDS011;9284;52.298;21.164;2023-08-12T01:37:45;9.40;;;5.13;;
18316;SDS011;9284;52.298;21.164;2023-08-12T01:40:16;7.90;;;4.90;;
18316;SDS011;9284;52.298;21.164;2023-08-12T01:42:46;8.20;;;5.03;;
18316;SDS011;9284;52.298;21.164;2023-08-12T01:45:16;7.95;;;5.15;;
18316;SDS011;9284;52.298;21.164;2023-08-12T01:47:46;11.95;;;5.03;;
18316;SDS011;9284;52.298;21.164;2023-08-12T01:50:17;8.27;;;5.28;;
18316;SDS011;9284;52.298;21.164;2023-08-12T01:52:48;10.82;;;5.35;;
18316;SDS011;9284;52.298;21.164;2023-08-12T01:55:18;7.53;;;4.97;;
18316;SDS011;9284;52.298;21.164;2023-08-12T01:57:46;11.75;;;4.50;;
18316;SDS011;9284;52.298;21.164;2023-08-12T02:00:15;9.77;;;5.43;;
18316;SDS011;9284;52.298;21.164;2023-08-12T02:02:43;10.65;;;5.10;;
18316;SDS011;9284;52.298;21.164;2023-08-12T02:05:13;7.20;;;4.88;;
18316;SDS011;9284;52.298;21.164;2023-08-12T02:07:42;6.65;;;4.63;;
18316;SDS011;9284;52.298;21.164;2023-08-12T02:10:11;7.43;;;4.93;;
18316;SDS011;9284;52.298;21.164;2023-08-12T02:12:42;6.63;;;4.43;;
18316;SDS011;9284;52.298;21.164;2023-08-12T02:15:11;9.45;;;4.75;;
18316;SDS011;9284;52.298;21.164;2023-08-12T02:17:39;10.68;;;5.03;;
18316;SDS011;9284;52.298;21.164;2023-08-12T02:20:08;7.95;;;4.63;;
18316;SDS011;9284;52.298;21.164;2023-08-12T02:22:36;9.60;;;4.97;;
18316;SDS011;9284;52.298;21.164;2023-08-12T02:25:05;10.10;;;5.13;;
18316;SDS011;9284;52.298;21.164;2023-08-12T02:27:33;13.57;;;5.05;;
18316;SDS011;9284;52.298;21.164;2023-08-12T02:30:03;6.95;;;4.82;;
18316;SDS011;9284;52.298;21.164;2023-08-12T02:32:32;11.07;;;5.13;;
18316;SDS011;9284;52.298;21.164;2023-08-12T02:35:03;9.90;;;5.53;;
18316;SDS011;9284;52.298;21.164;2023-08-12T02:37:32;11.98;;;5.00;;
18316;SDS011;9284;52.298;21.164;2023-08-12T02:40:00;10.57;;;5.10;;
18316;SDS011;9284;52.298;21.164;2023-08-12T02:42:31;9.07;;;5.20;;
18316;SDS011;9284;52.298;21.164;2023-08-12T02:44:59;10.32;;;5.25;;
18316;SDS011;9284;52.298;21.164;2023-08-12T02:47:29;9.40;;;5.15;;
18316;SDS011;9284;52.298;21.164;2023-08-12T02:49:58;7.07;;;5.53;;
18316;SDS011;9284;52.298;21.164;2023-08-12T02:52:26;8.65;;;5.78;;
18316;SDS011;9284;52.298;21.164;2023-08-12T02:54:54;11.63;;;4.85;;
18316;SDS011;9284;52.298;21.164;2023-08-12T02:57:23;10.20;;;5.20;;
18316;SDS011;9284;52.298;21.164;2023-08-12T02:59:51;8.00;;;4.93;;
18316;SDS011;9284;52.298;21.164;2023-08-12T03:02:22;6.63;;;4.80;;
18316;SDS011;9284;52.298;21.164;2023-08-12T03:04:53;10.57;;;5.43;;
18316;SDS011;9284;52.298;21.164;2023-08-12T03:07:24;8.80;;;5.30;;
18316;SDS011;9284;52.298;21.164;2023-08-12T03:09:53;10.35;;;5.28;;
18316;SDS011;9284;52.298;21.164;2023-08-12T03:12:21;9.43;;;5.35;;
18316;SDS011;9284;52.298;21.164;2023-08-12T03:14:49;9.70;;;5.35;;
18316;SDS011;9284;52.298;21.164;2023-08-12T03:17:18;11.80;;;5.30;;
18316;SDS011;9284;52.298;21.164;2023-08-12T03:19:47;9.30;;;5.63;;
18316;SDS011;9284;52.298;21.164;2023-08-12T03:22:17;8.30;;;5.18;;
18316;SDS011;9284;52.298;21.164;2023-08-12T03:24:46;12.90;;;6.35;;
18316;SDS011;9284;52.298;21.164;2023-08-12T03:27:16;10.20;;;6.22;;
18316;SDS011;9284;52.298;21.164;2023-08-12T03:29:44;9.07;;;6.03;;
18316;SDS011;9284;52.298;21.164;2023-08-12T03:32:13;7.78;;;5.38;;
18316;SDS011;9284;52.298;21.164;2023-08-12T03:34:42;13.35;;;6.28;;
18316;SDS011;9284;52.298;21.164;2023-08-12T03:37:11;11.15;;;6.00;;
18316;SDS011;9284;52.298;21.164;2023-08-12T03:39:42;9.00;;;5.82;;
18316;SDS011;9284;52.298;21.164;2023-08-12T03:42:11;11.35;;;6.38;;
18316;SDS011;9284;52.298;21.164;2023-08-12T03:44:39;13.75;;;6.15;;
18316;SDS011;9284;52.298;21.164;2023-08-12T03:47:07;9.07;;;5.53;;
18316;SDS011;9284;52.298;21.164;2023-08-12T03:49:36;10.35;;;5.60;;
18316;SDS011;9284;52.298;21.164;2023-08-12T03:52:05;9.38;;;5.22;;
18316;SDS011;9284;52.298;21.164;2023-08-12T03:54:36;11.75;;;5.80;;
18316;SDS011;9284;52.298;21.164;2023-08-12T03:57:05;10.30;;;5.07;;
18316;SDS011;9284;52.298;21.164;2023-08-12T03:59:34;8.93;;;5.30;;
18316;SDS011;9284;52.298;21.164;2023-08-12T04:02:02;7.72;;;5.53;;
18316;SDS011;9284;52.298;21.164;2023-08-12T04:04:31;11.05;;;5.35;;
18316;SDS011;9284;52.298;21.164;2023-08-12T04:07:00;15.40;;;5.72;;
18316;SDS011;9284;52.298;21.164;2023-08-12T04:09:28;11.25;;;5.18;;
18316;SDS011;9284;52.298;21.164;2023-08-12T04:11:56;11.20;;;5.68;;
18316;SDS011;9284;52.298;21.164;2023-08-12T04:14:26;11.65;;;5.97;;
18316;SDS011;9284;52.298;21.164;2023-08-12T04:16:55;9.23;;;5.30;;
18316;SDS011;9284;52.298;21.164;2023-08-12T04:19:24;12.43;;;5.97;;
18316;SDS011;9284;52.298;21.164;2023-08-12T04:21:52;9.07;;;5.55;;
18316;SDS011;9284;52.298;21.164;2023-08-12T04:24:20;14.93;;;5.93;;
18316;SDS011;9284;52.298;21.164;2023-08-12T04:26:49;9.70;;;5.35;;
18316;SDS011;9284;52.298;21.164;2023-08-12T04:29:17;8.63;;;5.35;;
18316;SDS011;9284;52.298;21.164;2023-08-12T04:31:47;13.55;;;5.68;;
18316;SDS011;9284;52.298;21.164;2023-08-12T04:34:15;13.15;;;5.70;;
18316;SDS011;9284;52.298;21.164;2023-08-12T04:36:44;9.38;;;6.03;;
18316;SDS011;9284;52.298;21.164;2023-08-12T04:39:13;10.10;;;5.30;;
18316;SDS011;9284;52.298;21.164;2023-08-12T04:41:42;9.32;;;5.38;;
18316;SDS011;9284;52.298;21.164;2023-08-12T04:44:11;11.20;;;6.03;;
18316;SDS011;9284;52.298;21.164;2023-08-12T04:46:40;10.00;;;5.40;;
18316;SDS011;9284;52.298;21.164;2023-08-12T04:49:10;8.48;;;5.30;;
18316;SDS011;9284;52.298;21.164;2023-08-12T04:51:41;9.27;;;5.18;;
18316;SDS011;9284;52.298;21.164;2023-08-12T04:54:09;7.95;;;5.00;;
18316;SDS011;9284;52.298;21.164;2023-08-12T04:56:37;13.13;;;5.32;;
18316;SDS011;9284;52.298;21.164;2023-08-12T04:59:06;9.98;;;5.00;;
18316;SDS011;9284;52.298;21.164;2023-08-12T05:01:35;10.68;;;5.60;;
18316;SDS011;9284;52.298;21.164;2023-08-12T05:04:17;6.22;;;4.63;;
18316;SDS011;9284;52.298;21.164;2023-08-12T05:06:46;8.90;;;4.93;;
18316;SDS011;9284;52.298;21.164;2023-08-12T05:09:14;6.97;;;4.88;;
18316;SDS011;9284;52.298;21.164;2023-08-12T05:11:43;9.02;;;4.85;;
18316;SDS011;9284;52.298;21.164;2023-08-12T05:14:11;8.52;;;4.97;;
18316;SDS011;9284;52.298;21.164;2023-08-12T05:16:39;6.80;;;4.68;;
18316;SDS011;9284;52.298;21.164;2023-08-12T05:19:08;9.55;;;4.80;;
18316;SDS011;9284;52.298;21.164;2023-08-12T05:21:37;10.57;;;4.85;;
18316;SDS011;9284;52.298;21.164;2023-08-12T05:24:06;7.63;;;4.40;;
18316;SDS011;9284;52.298;21.164;2023-08-12T05:26:37;6.75;;;4.55;;
18316;SDS011;9284;52.298;21.164;2023-08-12T05:29:06;6.68;;;4.40;;
18316;SDS011;9284;52.298;21.164;2023-08-12T05:31:34;6.38;;;4.28;;
18316;SDS011;9284;52.298;21.164;2023-08-12T05:34:03;9.70;;;4.57;;
18316;SDS011;9284;52.298;21.164;2023-08-12T05:36:32;9.75;;;5.15;;
18316;SDS011;9284;52.298;21.164;2023-08-12T05:39:02;8.02;;;4.25;;
18316;SDS011;9284;52.298;21.164;2023-08-12T05:41:30;10.38;;;4.72;;
18316;SDS011;9284;52.298;21.164;2023-08-12T05:43:58;6.28;;;4.40;;
18316;SDS011;9284;52.298;21.164;2023-08-12T05:46:27;14.77;;;4.50;;
18316;SDS011;9284;52.298;21.164;2023-08-12T05:48:55;8.90;;;4.80;;
18316;SDS011;9284;52.298;21.164;2023-08-12T05:51:23;10.73;;;4.10;;
18316;SDS011;9284;52.298;21.164;2023-08-12T05:53:56;8.63;;;4.50;;
18316;SDS011;9284;52.298;21.164;2023-08-12T05:56:25;8.85;;;4.20;;
18316;SDS011;9284;52.298;21.164;2023-08-12T05:58:54;9.63;;;4.43;;
18316;SDS011;9284;52.298;21.164;2023-08-12T06:01:22;6.70;;;4.15;;
18316;SDS011;9284;52.298;21.164;2023-08-12T06:03:50;7.47;;;3.83;;
18316;SDS011;9284;52.298;21.164;2023-08-12T06:06:19;7.18;;;3.92;;
18316;SDS011;9284;52.298;21.164;2023-08-12T06:08:48;6.18;;;3.88;;
18316;SDS011;9284;52.298;21.164;2023-08-12T06:11:16;7.90;;;3.30;;
18316;SDS011;9284;52.298;21.164;2023-08-12T06:13:46;4.60;;;3.35;;
18316;SDS011;9284;52.298;21.164;2023-08-12T06:16:14;6.32;;;3.70;;
18316;SDS011;9284;52.298;21.164;2023-08-12T06:18:42;4.70;;;3.00;;
18316;SDS011;9284;52.298;21.164;2023-08-12T06:21:11;7.72;;;3.05;;
18316;SDS011;9284;52.298;21.164;2023-08-12T06:23:39;5.43;;;2.65;;
18316;SDS011;9284;52.298;21.164;2023-08-12T06:26:07;6.68;;;2.88;;
18316;SDS011;9284;52.298;21.164;2023-08-12T06:28:36;5.57;;;2.80;;
18316;SDS011;9284;52.298;21.164;2023-08-12T06:31:05;5.25;;;3.13;;
18316;SDS011;9284;52.298;21.164;2023-08-12T06:33:34;6.63;;;3.47;;
18316;SDS011;9284;52.298;21.164;2023-08-12T06:36:02;7.00;;;3.40;;
18316;SDS011;9284;52.298;21.164;2023-08-12T06:38:31;7.20;;;3.40;;
18316;SDS011;9284;52.298;21.164;2023-08-12T06:40:59;7.68;;;3.50;;
18316;SDS011;9284;52.298;21.164;2023-08-12T06:43:27;5.65;;;3.20;;
18316;SDS011;9284;52.298;21.164;2023-08-12T06:45:56;4.85;;;2.65;;
18316;SDS011;9284;52.298;21.164;2023-08-12T06:48:25;4.63;;;2.65;;
18316;SDS011;9284;52.298;21.164;2023-08-12T06:50:54;5.57;;;2.90;;
18316;SDS011;9284;52.298;21.164;2023-08-12T06:53:22;5.63;;;2.50;;
18316;SDS011;9284;52.298;21.164;2023-08-12T06:55:52;5.75;;;3.00;;
18316;SDS011;9284;52.298;21.164;2023-08-12T06:58:21;5.43;;;2.60;;
18316;SDS011;9284;52.298;21.164;2023-08-12T07:00:49;5.35;;;3.00;;
18316;SDS011;9284;52.298;21.164;2023-08-12T07:03:19;5.03;;;2.90;;
18316;SDS011;9284;52.298;21.164;2023-08-12T07:05:49;4.95;;;2.72;;
18316;SDS011;9284;52.298;21.164;2023-08-12T07:08:17;3.20;;;2.17;;
18316;SDS011;9284;52.298;21.164;2023-08-12T07:10:45;3.33;;;2.45;;
18316;SDS011;9284;52.298;21.164;2023-08-12T07:13:14;5.45;;;2.10;;
18316;SDS011;9284;52.298;21.164;2023-08-12T07:15:42;3.00;;;2.10;;
18316;SDS011;9284;52.298;21.164;2023-08-12T07:18:11;4.22;;;2.13;;
18316;SDS011;9284;52.298;21.164;2023-08-12T07:20:39;6.07;;;2.35;;
18316;SDS011;9284;52.298;21.164;2023-08-12T07:23:10;5.65;;;1.80;;
18316;SDS011;9284;52.298;21.164;2023-08-12T07:25:38;2.92;;;2.00;;
18316;SDS011;9284;52.298;21.164;2023-08-12T07:28:07;5.68;;;1.98;;
18316;SDS011;9284;52.298;21.164;2023-08-12T07:30:35;3.45;;;1.83;;
18316;SDS011;9284;52.298;21.164;2023-08-12T07:33:04;5.25;;;2.17;;
18316;SDS011;9284;52.298;21.164;2023-08-12T07:35:32;2.97;;;2.10;;
18316;SDS011;9284;52.298;21.164;2023-08-12T07:38:01;6.05;;;2.10;;
18316;SDS011;9284;52.298;21.164;2023-08-12T07:40:30;6.38;;;1.60;;
18316;SDS011;9284;52.298;21.164;2023-08-12T07:42:59;2.17;;;1.50;;
18316;SDS011;9284;52.298;21.164;2023-08-12T07:45:27;4.05;;;2.03;;
18316;SDS011;9284;52.298;21.164;2023-08-12T07:47:55;3.20;;;1.58;;
18316;SDS011;9284;52.298;21.164;2023-08-12T07:50:24;5.57;;;1.75;;
18316;SDS011;9284;52.298;21.164;2023-08-12T07:52:52;3.38;;;1.75;;
18316;SDS011;9284;52.298;21.164;2023-08-12T07:55:20;6.05;;;1.48;;
18316;SDS011;9284;52.298;21.164;2023-08-12T07:57:54;5.90;;;1.40;;
18316;SDS011;9284;52.298;21.164;2023-08-12T08:00:22;3.38;;;1.52;;
18316;SDS011;9284;52.298;21.164;2023-08-12T08:02:50;3.90;;;1.70;;
18316;SDS011;9284;52.298;21.164;2023-08-12T08:05:19;4.05;;;1.58;;
18316;SDS011;9284;52.298;21.164;2023-08-12T08:07:47;3.90;;;1.70;;
18316;SDS011;9284;52.298;21.164;2023-08-12T08:10:15;4.25;;;1.65;;
18316;SDS011;9284;52.298;21.164;2023-08-12T08:12:44;2.35;;;1.67;;
18316;SDS011;9284;52.298;21.164;2023-08-12T08:15:15;5.78;;;1.63;;
18316;SDS011;9284;52.298;21.164;2023-08-12T08:17:46;3.47;;;1.75;;
18316;SDS011;9284;52.298;21.164;2023-08-12T08:20:14;3.28;;;1.50;;
18316;SDS011;9284;52.298;21.164;2023-08-12T08:22:43;3.28;;;1.65;;
18316;SDS011;9284;52.298;21.164;2023-08-12T08:25:11;6.50;;;1.73;;
18316;SDS011;9284;52.298;21.164;2023-08-12T08:27:39;2.38;;;1.40;;
18316;SDS011;9284;52.298;21.164;2023-08-12T08:30:10;3.53;;;1.80;;
18316;SDS011;9284;52.298;21.164;2023-08-12T08:32:41;4.93;;;1.90;;
18316;SDS011;9284;52.298;21.164;2023-08-12T08:35:09;3.42;;;1.85;;
18316;SDS011;9284;52.298;21.164;2023-08-12T08:37:37;4.80;;;1.50;;
18316;SDS011;9284;52.298;21.164;2023-08-12T08:40:07;3.88;;;1.40;;
18316;SDS011;9284;52.298;21.164;2023-08-12T08:42:36;2.03;;;1.30;;
18316;SDS011;9284;52.298;21.164;2023-08-12T08:45:05;3.25;;;1.50;;
18316;SDS011;9284;52.298;21.164;2023-08-12T08:47:41;5.95;;;1.60;;
18316;SDS011;9284;52.298;21.164;2023-08-12T08:50:10;4.20;;;1.40;;
18316;SDS011;9284;52.298;21.164;2023-08-12T08:52:39;5.82;;;2.00;;
18316;SDS011;9284;52.298;21.164;2023-08-12T08:55:09;2.50;;;1.50;;
18316;SDS011;9284;52.298;21.164;2023-08-12T08:57:39;5.22;;;1.83;;
18316;SDS011;9284;52.298;21.164;2023-08-12T09:00:14;3.45;;;1.40;;
18316;SDS011;9284;52.298;21.164;2023-08-12T09:02:46;4.95;;;1.63;;
18316;SDS011;9284;52.298;21.164;2023-08-12T09:05:15;4.18;;;1.40;;
18316;SDS011;9284;52.298;21.164;2023-08-12T09:07:44;3.28;;;1.63;;
18316;SDS011;9284;52.298;21.164;2023-08-12T09:10:13;4.60;;;1.88;;
18316;SDS011;9284;52.298;21.164;2023-08-12T09:12:42;5.07;;;1.80;;
18316;SDS011;9284;52.298;21.164;2023-08-12T09:15:13;3.13;;;1.70;;
18316;SDS011;9284;52.298;21.164;2023-08-12T09:17:45;2.95;;;1.63;;
18316;SDS011;9284;52.298;21.164;2023-08-12T09:20:14;4.05;;;2.03;;
18316;SDS011;9284;52.298;21.164;2023-08-12T09:22:42;5.90;;;1.92;;
18316;SDS011;9284;52.298;21.164;2023-08-12T09:25:11;7.60;;;1.75;;
18316;SDS011;9284;52.298;21.164;2023-08-12T09:27:39;6.32;;;1.70;;
18316;SDS011;9284;52.298;21.164;2023-08-12T09:30:08;3.00;;;1.90;;
18316;SDS011;9284;52.298;21.164;2023-08-12T09:32:39;6.20;;;1.63;;
18316;SDS011;9284;52.298;21.164;2023-08-12T09:35:15;4.57;;;1.65;;
18316;SDS011;9284;52.298;21.164;2023-08-12T09:37:44;3.60;;;1.48;;
18316;SDS011;9284;52.298;21.164;2023-08-12T09:40:12;3.55;;;1.90;;
18316;SDS011;9284;52.298;21.164;2023-08-12T09:42:44;6.10;;;2.10;;
18316;SDS011;9284;52.298;21.164;2023-08-12T09:45:13;4.13;;;1.77;;
18316;SDS011;9284;52.298;21.164;2023-08-12T09:47:42;2.55;;;1.70;;
18316;SDS011;9284;52.298;21.164;2023-08-12T09:50:11;3.92;;;1.95;;
18316;SDS011;9284;52.298;21.164;2023-08-12T09:52:41;4.38;;;1.77;;
18316;SDS011;9284;52.298;21.164;2023-08-12T09:55:10;2.63;;;1.70;;
18316;SDS011;9284;52.298;21.164;2023-08-12T09:57:42;4.68;;;1.90;;
18316;SDS011;9284;52.298;21.164;2023-08-12T10:00:12;8.98;;;2.40;;
18316;SDS011;9284;52.298;21.164;2023-08-12T10:02:44;6.43;;;1.95;;
18316;SDS011;9284;52.298;21.164;2023-08-12T10:05:16;5.57;;;2.08;;
18316;SDS011;9284;52.298;21.164;2023-08-12T10:07:48;3.58;;;1.92;;
18316;SDS011;9284;52.298;21.164;2023-08-12T10:10:17;2.80;;;1.98;;
18316;SDS011;9284;52.298;21.164;2023-08-12T10:12:45;6.15;;;1.77;;
18316;SDS011;9284;52.298;21.164;2023-08-12T10:15:15;6.15;;;1.80;;
18316;SDS011;9284;52.298;21.164;2023-08-12T10:17:43;3.40;;;1.95;;
18316;SDS011;9284;52.298;21.164;2023-08-12T10:20:12;5.32;;;1.98;;
18316;SDS011;9284;52.298;21.164;2023-08-12T10:22:41;4.18;;;2.17;;
18316;SDS011;9284;52.298;21.164;2023-08-12T10:25:13;5.45;;;2.38;;
18316;SDS011;9284;52.298;21.164;2023-08-12T10:27:42;6.05;;;2.17;;
18316;SDS011;9284;52.298;21.164;2023-08-12T10:30:10;4.82;;;2.08;;
18316;SDS011;9284;52.298;21.164;2023-08-12T10:32:41;6.15;;;2.17;;
18316;SDS011;9284;52.298;21.164;2023-08-12T10:35:10;3.60;;;1.70;;
18316;SDS011;9284;52.298;21.164;2023-08-12T10:37:39;7.90;;;2.00;;
18316;SDS011;9284;52.298;21.164;2023-08-12T10:40:20;5.53;;;2.17;;
18316;SDS011;9284;52.298;21.164;2023-08-12T10:42:50;3.70;;;1.85;;
18316;SDS011;9284;52.298;21.164;2023-08-12T10:45:19;2.70;;;1.77;;
18316;SDS011;9284;52.298;21.164;2023-08-12T10:47:48;4.20;;;2.10;;
18316;SDS011;9284;52.298;21.164;2023-08-12T10:50:20;2.97;;;1.67;;
18316;SDS011;9284;52.298;21.164;2023-08-12T10:52:51;3.10;;;1.88;;
18316;SDS011;9284;52.298;21.164;2023-08-12T10:55:22;5.97;;;1.98;;
18316;SDS011;9284;52.298;21.164;2023-08-12T10:57:51;3.55;;;1.70;;
18316;SDS011;9284;52.298;21.164;2023-08-12T11:00:23;2.42;;;1.50;;
18316;SDS011;9284;52.298;21.164;2023-08-12T11:02:53;3.25;;;1.63;;
18316;SDS011;9284;52.298;21.164;2023-08-12T11:05:22;3.03;;;1.42;;
18316;SDS011;9284;52.298;21.164;2023-08-12T11:07:55;2.55;;;1.58;;
18316;SDS011;9284;52.298;21.164;2023-08-12T11:10:26;3.08;;;1.80;;
18316;SDS011;9284;52.298;21.164;2023-08-12T11:12:59;2.78;;;1.67;;
18316;SDS011;9284;52.298;21.164;2023-08-12T11:15:30;7.35;;;1.75;;
18316;SDS011;9284;52.298;21.164;2023-08-12T11:18:01;5.63;;;2.08;;
18316;SDS011;9284;52.298;21.164;2023-08-12T11:20:31;3.13;;;1.73;;
18316;SDS011;9284;52.298;21.164;2023-08-12T11:23:00;3.78;;;1.95;;
18316;SDS011;9284;52.298;21.164;2023-08-12T11:25:31;3.28;;;1.77;;
18316;SDS011;9284;52.298;21.164;2023-08-12T11:28:01;9.77;;;2.65;;
18316;SDS011;9284;52.298;21.164;2023-08-12T11:30:31;4.00;;;1.70;;
18316;SDS011;9284;52.298;21.164;2023-08-12T11:33:00;5.38;;;1.90;;
18316;SDS011;9284;52.298;21.164;2023-08-12T11:35:29;2.75;;;1.85;;
18316;SDS011;9284;52.298;21.164;2023-08-12T11:37:58;4.45;;;1.98;;
18316;SDS011;9284;52.298;21.164;2023-08-12T11:40:27;4.85;;;2.03;;
18316;SDS011;9284;52.298;21.164;2023-08-12T11:42:57;4.43;;;1.85;;
18316;SDS011;9284;52.298;21.164;2023-08-12T11:45:26;2.55;;;1.55;;
18316;SDS011;9284;52.298;21.164;2023-08-12T11:47:56;5.93;;;2.00;;
18316;SDS011;9284;52.298;21.164;2023-08-12T11:50:25;5.88;;;2.13;;
18316;SDS011;9284;52.298;21.164;2023-08-12T11:52:55;2.35;;;1.70;;
18316;SDS011;9284;52.298;21.164;2023-08-12T11:55:24;5.55;;;2.20;;
18316;SDS011;9284;52.298;21.164;2023-08-12T11:57:53;6.82;;;2.10;;
18316;SDS011;9284;52.298;21.164;2023-08-12T12:00:22;4.10;;;2.15;;
18316;SDS011;9284;52.298;21.164;2023-08-12T12:02:54;2.50;;;1.80;;
18316;SDS011;9284;52.298;21.164;2023-08-12T12:05:23;4.00;;;2.63;;
18316;SDS011;9284;52.298;21.164;2023-08-12T12:07:54;2.60;;;1.85;;
18316;SDS011;9284;52.298;21.164;2023-08-12T12:10:25;5.68;;;2.28;;
18316;SDS011;9284;52.298;21.164;2023-08-12T12:13:00;4.30;;;2.30;;
18316;SDS011;9284;52.298;21.164;2023-08-12T12:15:31;5.20;;;1.80;;
18316;SDS011;9284;52.298;21.164;2023-08-12T12:18:00;5.93;;;1.95;;
18316;SDS011;9284;52.298;21.164;2023-08-12T12:20:28;2.97;;;2.00;;
18316;SDS011;9284;52.298;21.164;2023-08-12T12:22:56;4.97;;;2.42;;
18316;SDS011;9284;52.298;21.164;2023-08-12T12:25:25;5.57;;;1.92;;
18316;SDS011;9284;52.298;21.164;2023-08-12T12:27:53;3.58;;;1.98;;
18316;SDS011;9284;52.298;21.164;2023-08-12T12:30:21;4.65;;;1.98;;
18316;SDS011;9284;52.298;21.164;2023-08-12T12:32:51;4.28;;;2.00;;
18316;SDS011;9284;52.298;21.164;2023-08-12T12:35:21;6.78;;;2.30;;
18316;SDS011;9284;52.298;21.164;2023-08-12T12:37:50;6.45;;;2.35;;
18316;SDS011;9284;52.298;21.164;2023-08-12T12:40:18;5.90;;;2.60;;
18316;SDS011;9284;52.298;21.164;2023-08-12T12:42:47;7.45;;;2.70;;
18316;SDS011;9284;52.298;21.164;2023-08-12T12:45:15;5.15;;;2.40;;
18316;SDS011;9284;52.298;21.164;2023-08-12T12:47:44;5.22;;;2.33;;
18316;SDS011;9284;52.298;21.164;2023-08-12T12:50:13;8.85;;;2.90;;
18316;SDS011;9284;52.298;21.164;2023-08-12T12:52:43;5.22;;;2.38;;
18316;SDS011;9284;52.298;21.164;2023-08-12T12:55:12;7.00;;;2.83;;
18316;SDS011;9284;52.298;21.164;2023-08-12T12:57:40;4.55;;;2.13;;
18316;SDS011;9284;52.298;21.164;2023-08-12T13:00:08;6.07;;;2.60;;
18316;SDS011;9284;52.298;21.164;2023-08-12T13:02:38;6.30;;;2.70;;
18316;SDS011;9284;52.298;21.164;2023-08-12T13:05:07;4.05;;;2.40;;
18316;SDS011;9284;52.298;21.164;2023-08-12T13:07:37;4.65;;;2.65;;
18316;SDS011;9284;52.298;21.164;2023-08-12T13:10:06;3.78;;;2.20;;
18316;SDS011;9284;52.298;21.164;2023-08-12T13:12:35;5.65;;;2.15;;
18316;SDS011;9284;52.298;21.164;2023-08-12T13:15:04;4.63;;;2.78;;
18316;SDS011;9284;52.298;21.164;2023-08-12T13:17:33;5.70;;;2.13;;
18316;SDS011;9284;52.298;21.164;2023-08-12T13:20:02;8.38;;;2.53;;
18316;SDS011;9284;52.298;21.164;2023-08-12T13:22:31;4.15;;;2.25;;
18316;SDS011;9284;52.298;21.164;2023-08-12T13:25:01;4.93;;;2.35;;
18316;SDS011;9284;52.298;21.164;2023-08-12T13:27:30;5.57;;;2.38;;
18316;SDS011;9284;52.298;21.164;2023-08-12T13:29:59;6.68;;;2.60;;
18316;SDS011;9284;52.298;21.164;2023-08-12T13:32:27;4.07;;;2.30;;
18316;SDS011;9284;52.298;21.164;2023-08-12T13:34:56;10.90;;;2.50;;
18316;SDS011;9284;52.298;21.164;2023-08-12T13:37:24;6.30;;;2.45;;
18316;SDS011;9284;52.298;21.164;2023-08-12T13:39:52;5.07;;;2.63;;
18316;SDS011;9284;52.298;21.164;2023-08-12T13:42:22;5.72;;;2.47;;
18316;SDS011;9284;52.298;21.164;2023-08-12T13:44:50;6.47;;;2.28;;
18316;SDS011;9284;52.298;21.164;2023-08-12T13:47:19;5.32;;;2.78;;
18316;SDS011;9284;52.298;21.164;2023-08-12T13:49:47;3.35;;;2.28;;
18316;SDS011;9284;52.298;21.164;2023-08-12T13:52:16;3.95;;;2.20;;
18316;SDS011;9284;52.298;21.164;2023-08-12T13:54:44;3.83;;;2.25;;
18316;SDS011;9284;52.298;21.164;2023-08-12T13:57:13;8.82;;;3.35;;
18316;SDS011;9284;52.298;21.164;2023-08-12T13:59:42;8.20;;;2.80;;
18316;SDS011;9284;52.298;21.164;2023-08-12T14:02:11;3.42;;;2.20;;
18316;SDS011;9284;52.298;21.164;2023-08-12T14:04:40;3.97;;;2.25;;
18316;SDS011;9284;52.298;21.164;2023-08-12T14:07:08;4.47;;;2.40;;
18316;SDS011;9284;52.298;21.164;2023-08-12T14:09:37;3.92;;;2.75;;
18316;SDS011;9284;52.298;21.164;2023-08-12T14:12:05;3.22;;;2.20;;
18316;SDS011;9284;52.298;21.164;2023-08-12T14:14:34;4.75;;;2.10;;
18316;SDS011;9284;52.298;21.164;2023-08-12T14:17:04;4.65;;;2.30;;
18316;SDS011;9284;52.298;21.164;2023-08-12T14:19:32;7.95;;;2.67;;
18316;SDS011;9284;52.298;21.164;2023-08-12T14:22:00;6.53;;;2.75;;
18316;SDS011;9284;52.298;21.164;2023-08-12T14:24:29;6.38;;;2.30;;
18316;SDS011;9284;52.298;21.164;2023-08-12T14:26:57;8.45;;;2.45;;
18316;SDS011;9284;52.298;21.164;2023-08-12T14:29:25;6.25;;;2.40;;
18316;SDS011;9284;52.298;21.164;2023-08-12T14:31:54;6.32;;;2.28;;
18316;SDS011;9284;52.298;21.164;2023-08-12T14:34:23;7.03;;;2.47;;
18316;SDS011;9284;52.298;21.164;2023-08-12T14:36:52;3.70;;;2.53;;
18316;SDS011;9284;52.298;21.164;2023-08-12T14:39:20;4.60;;;2.20;;
18316;SDS011;9284;52.298;21.164;2023-08-12T14:41:49;2.92;;;2.20;;
18316;SDS011;9284;52.298;21.164;2023-08-12T14:44:17;8.90;;;3.05;;
18316;SDS011;9284;52.298;21.164;2023-08-12T14:46:45;3.42;;;2.15;;
18316;SDS011;9284;52.298;21.164;2023-08-12T14:49:14;5.68;;;2.53;;
18316;SDS011;9284;52.298;21.164;2023-08-12T14:51:43;6.22;;;2.35;;
18316;SDS011;9284;52.298;21.164;2023-08-12T14:54:12;5.28;;;2.30;;
18316;SDS011;9284;52.298;21.164;2023-08-12T14:56:40;6.22;;;2.50;;